Time;durP1;ratioP1;P1;durP2;ratioP2;P2;SDS_P1;SDS_P2;PMS_P1;PMS_P2;Temp;Humidity;BMP_temperature;BMP_pressure;BME280_temperature;BME280_humidity;BME280_pressure;Samples;Min_cycle;Max_cycle;Signal;HPM_P1;HPM_P2
2023/08/24 00:00:41;;;;;;;0.05;0.05;;;25.50;99.90;;;;;;5085024;28;20028;-79
2023/08/24 00:03:08;;;;;;;;;;;25.40;99.90;;;;;;5063906;28;20059;-78
2023/08/24 00:05:36;;;;;;;0.00;0.00;;;25.40;99.90;;;;;;5083293;28;19912;-80
2023/08/24 00:08:04;;;;;;;0.00;0.00;;;25.40;99.90;;;;;;5084499;28;20103;-77
2023/08/24 00:10:30;;;;;;;0.00;0.00;;;25.40;99.90;;;;;;5085192;28;20026;-77
2023/08/24 00:12:55;;;;;;;0.00;0.00;;;25.40;99.90;;;;;;5084420;28;20030;-79
2023/08/24 00:15:21;;;;;;;0.10;0.10;;;25.30;99.90;;;;;;5083350;28;20146;-77
2023/08/24 00:17:47;;;;;;;0.00;0.00;;;25.30;99.90;;;;;;5059892;28;20035;-80
2023/08/24 00:20:13;;;;;;;0.00;0.00;;;25.30;99.90;;;;;;5081584;28;20024;-80
2023/08/24 00:22:39;;;;;;;0.17;0.17;;;25.30;99.80;;;;;;5065846;28;20020;-78
2023/08/24 00:25:07;;;;;;;0.22;0.22;;;25.30;99.70;;;;;;5075363;28;20036;-80
2023/08/24 00:27:33;;;;;;;0.00;0.00;;;25.30;99.70;;;;;;5083420;28;20144;-77
2023/08/24 00:29:59;;;;;;;0.00;0.00;;;25.30;99.50;;;;;;5078524;28;20136;-79
2023/08/24 00:32:24;;;;;;;0.23;0.23;;;25.30;99.40;;;;;;5078729;28;20787;-79
2023/08/24 00:34:50;;;;;;;0.00;0.00;;;25.20;99.60;;;;;;5084061;28;20227;-82
2023/08/24 00:37:16;;;;;;;0.90;0.60;;;25.30;99.50;;;;;;5082053;28;20028;-79
2023/08/24 00:39:41;;;;;;;0.00;0.00;;;25.20;99.70;;;;;;5078070;28;20034;-81
2023/08/24 00:42:08;;;;;;;0.20;0.20;;;25.10;99.90;;;;;;5083848;28;20035;-81
2023/08/24 00:44:34;;;;;;;0.30;0.30;;;25.00;99.90;;;;;;5063673;28;20028;-80
2023/08/24 00:47:00;;;;;;;0.17;0.15;;;25.00;99.90;;;;;;5082923;28;20056;-79
2023/08/24 00:49:26;;;;;;;0.30;0.30;;;25.00;99.90;;;;;;5083762;28;20025;-80
2023/08/24 00:51:52;;;;;;;0.15;0.15;;;25.00;99.90;;;;;;5058757;28;20031;-78
2023/08/24 00:54:18;;;;;;;0.00;0.00;;;25.00;99.90;;;;;;5077086;28;20027;-78
2023/08/24 00:56:44;;;;;;;0.00;0.00;;;24.90;99.90;;;;;;5072213;28;20047;-79
2023/08/24 00:59:11;;;;;;;0.00;0.00;;;24.80;99.90;;;;;;5055193;28;21822;-80
2023/08/24 01:01:39;;;;;;;0.00;0.00;;;24.70;99.90;;;;;;5057225;28;20028;-80
2023/08/24 01:04:07;;;;;;;0.00;0.00;;;24.70;99.90;;;;;;5071202;28;20051;-79
2023/08/24 01:06:32;;;;;;;0.10;0.10;;;24.60;99.90;;;;;;5072713;28;20107;-80
2023/08/24 01:08:58;;;;;;;0.03;0.03;;;24.60;99.90;;;;;;5077644;28;20082;-78
2023/08/24 01:11:47;;;;;;;0.10;0.10;;;24.50;99.90;;;;;;5079086;28;20032;-81
2023/08/24 01:14:48;;;;;;;0.10;0.10;;;24.40;99.90;;;;;;5059694;28;20136;-80
2023/08/24 01:17:17;;;;;;;0.10;0.10;;;24.40;99.90;;;;;;5048508;28;20109;-81
2023/08/24 01:19:47;;;;;;;0.00;0.00;;;24.40;99.90;;;;;;5073704;28;21672;-79
2023/08/24 01:22:26;;;;;;;0.00;0.00;;;24.40;99.90;;;;;;5077847;28;20558;-79
2023/08/24 01:25:01;;;;;;;0.10;0.10;;;24.30;99.90;;;;;;5077223;28;20086;-79
2023/08/24 01:27:29;;;;;;;0.43;0.30;;;24.20;99.90;;;;;;5071537;28;20033;-79
2023/08/24 01:29:56;;;;;;;0.00;0.00;;;24.20;99.90;;;;;;5078642;28;20021;-79
2023/08/24 01:32:22;;;;;;;0.00;0.00;;;24.20;99.90;;;;;;5075550;28;20378;-79
2023/08/24 01:34:48;;;;;;;0.00;0.00;;;24.20;99.90;;;;;;5077391;28;20408;-79
2023/08/24 01:37:14;;;;;;;0.30;0.30;;;24.10;99.90;;;;;;5076466;28;20039;-80
2023/08/24 01:39:47;;;;;;;0.00;0.00;;;24.20;99.90;;;;;;5074689;28;20032;-79
2023/08/24 01:42:20;;;;;;;0.52;0.52;;;24.30;99.90;;;;;;5077441;28;20084;-78
2023/08/24 01:44:52;;;;;;;0.00;0.00;;;24.30;99.90;;;;;;5072248;28;20050;-78
2023/08/24 01:47:18;;;;;;;0.00;0.00;;;24.40;99.90;;;;;;5072441;28;20784;-79
2023/08/24 01:49:44;;;;;;;0.00;0.00;;;24.50;99.90;;;;;;5051203;28;20111;-79
2023/08/24 01:52:10;;;;;;;1.10;1.00;;;24.60;99.70;;;;;;5071615;28;20541;-78
2023/08/24 01:54:36;;;;;;;;;;;24.60;99.60;;;;;;5077459;28;20028;-82
2023/08/24 01:57:04;;;;;;;;;;;24.60;99.60;;;;;;5075860;28;20332;-79
2023/08/24 01:59:29;;;;;;;0.00;0.00;;;24.60;99.50;;;;;;5059087;28;20290;-79
2023/08/24 02:01:55;;;;;;;0.10;0.10;;;24.60;99.50;;;;;;5074581;28;20038;-79
2023/08/24 02:04:21;;;;;;;1.50;1.10;;;24.50;99.80;;;;;;5080326;28;20788;-79
2023/08/24 02:06:46;;;;;;;0.00;0.00;;;24.30;99.90;;;;;;5077492;28;20028;-80
2023/08/24 02:09:12;;;;;;;0.00;0.00;;;24.20;99.90;;;;;;5057235;28;20130;-78
2023/08/24 02:11:38;;;;;;;0.00;0.00;;;24.10;99.90;;;;;;5075915;28;20169;-78
2023/08/24 02:14:04;;;;;;;0.00;0.00;;;24.10;99.90;;;;;;5080857;28;20039;-78
2023/08/24 02:16:30;;;;;;;0.50;0.30;;;24.10;99.90;;;;;;5055608;28;20048;-79
2023/08/24 02:18:55;;;;;;;0.05;0.05;;;24.10;99.90;;;;;;5074344;28;20025;-82
2023/08/24 02:21:21;;;;;;;0.10;0.10;;;24.00;99.90;;;;;;5070256;28;20028;-80
2023/08/24 02:23:47;;;;;;;0.00;0.00;;;23.90;99.90;;;;;;5060335;28;20016;-80
2023/08/24 02:26:13;;;;;;;0.13;0.13;;;23.80;99.90;;;;;;5062941;28;20078;-79
2023/08/24 02:28:39;;;;;;;0.00;0.00;;;23.80;99.90;;;;;;5074786;28;20446;-80
2023/08/24 02:31:05;;;;;;;0.10;0.10;;;23.80;99.90;;;;;;5082436;28;20024;-79
2023/08/24 02:33:31;;;;;;;0.05;0.05;;;23.90;99.90;;;;;;5079655;28;20479;-78
2023/08/24 02:35:57;;;;;;;0.00;0.00;;;23.90;99.90;;;;;;5074966;28;20047;-79
2023/08/24 02:38:23;;;;;;;0.00;0.00;;;23.90;99.90;;;;;;5079705;28;20028;-78
2023/08/24 02:40:49;;;;;;;;;;;23.90;99.90;;;;;;5074069;28;20266;-80
2023/08/24 02:43:15;;;;;;;1.08;0.93;;;23.80;99.90;;;;;;5074424;28;20746;-79
2023/08/24 02:45:40;;;;;;;0.20;0.20;;;23.90;99.90;;;;;;5079898;28;20032;-79
2023/08/24 02:48:06;;;;;;;0.00;0.00;;;23.80;99.90;;;;;;5060607;28;20063;-80
2023/08/24 02:50:32;;;;;;;0.00;0.00;;;23.70;99.90;;;;;;5053074;28;20032;-78
2023/08/24 02:52:58;;;;;;;0.00;0.00;;;23.80;99.90;;;;;;5081354;28;20056;-78
2023/08/24 02:55:24;;;;;;;0.10;0.10;;;23.70;99.90;;;;;;5073441;28;20274;-77
2023/08/24 02:57:50;;;;;;;0.10;0.10;;;23.60;99.90;;;;;;5074384;28;20053;-80
2023/08/24 03:00:16;;;;;;;0.35;0.35;;;23.60;99.90;;;;;;5077999;28;20395;-78
2023/08/24 03:02:42;;;;;;;0.00;0.00;;;23.60;99.90;;;;;;5077468;28;20074;-79
2023/08/24 03:05:08;;;;;;;0.30;0.30;;;23.60;99.90;;;;;;5077975;28;20016;-79
2023/08/24 03:07:34;;;;;;;0.13;0.08;;;23.60;99.90;;;;;;5071041;28;20028;-80
2023/08/24 03:09:59;;;;;;;0.00;0.00;;;23.60;99.90;;;;;;5071024;28;20039;-80
2023/08/24 03:12:25;;;;;;;0.47;0.30;;;23.60;99.90;;;;;;5068695;28;20032;-80
2023/08/24 03:14:52;;;;;;;0.10;0.10;;;23.60;99.90;;;;;;5062298;28;20257;-80
2023/08/24 03:17:18;;;;;;;0.20;0.20;;;23.50;99.90;;;;;;5060845;28;20131;-79
2023/08/24 03:19:44;;;;;;;0.10;0.10;;;23.40;99.90;;;;;;5074881;28;20092;-80
2023/08/24 03:22:10;;;;;;;0.00;0.00;;;23.30;99.90;;;;;;5077647;28;20043;-82
2023/08/24 03:24:36;;;;;;;0.00;0.00;;;23.30;99.90;;;;;;5081298;28;20021;-80
2023/08/24 03:27:02;;;;;;;0.25;0.25;;;23.40;99.90;;;;;;5076675;28;20043;-81
2023/08/24 03:29:28;;;;;;;0.00;0.00;;;23.50;99.90;;;;;;5074313;28;20032;-79
2023/08/24 03:31:53;;;;;;;0.15;0.15;;;23.50;99.90;;;;;;5070869;28;20024;-79
2023/08/24 03:34:20;;;;;;;0.00;0.00;;;23.40;99.90;;;;;;5068477;28;20093;-80
2023/08/24 03:36:47;;;;;;;0.00;0.00;;;23.40;99.90;;;;;;5074193;28;20077;-82
2023/08/24 03:39:15;;;;;;;0.00;0.00;;;23.40;99.90;;;;;;5075944;28;20025;-81
2023/08/24 03:41:41;;;;;;;0.05;0.05;;;23.40;99.90;;;;;;5078685;28;20020;-80
2023/08/24 03:44:06;;;;;;;38.20;0.88;;;23.30;99.90;;;;;;5079399;28;20020;-81
2023/08/24 03:46:33;;;;;;;0.00;0.00;;;23.20;99.90;;;;;;5073587;28;20071;-80
2023/08/24 03:48:58;;;;;;;0.00;0.00;;;23.30;99.90;;;;;;5080153;28;20085;-81
2023/08/24 03:51:24;;;;;;;0.00;0.00;;;23.30;99.90;;;;;;5073568;28;20417;-80
2023/08/24 03:53:50;;;;;;;0.67;0.67;;;23.20;99.90;;;;;;5080063;28;20849;-80
2023/08/24 03:56:15;;;;;;;0.67;0.67;;;23.20;99.90;;;;;;5063829;28;20036;-79
2023/08/24 03:58:42;;;;;;;0.00;0.00;;;23.10;99.90;;;;;;5076748;28;20600;-79
2023/08/24 04:01:10;;;;;;;0.10;0.10;;;23.10;99.90;;;;;;5078744;28;20494;-80
2023/08/24 04:03:36;;;;;;;0.00;0.00;;;23.10;99.90;;;;;;5068005;28;20384;-78
2023/08/24 04:06:02;;;;;;;2.47;0.77;;;23.00;99.90;;;;;;5079033;28;20101;-80
2023/08/24 04:08:28;;;;;;;0.08;0.08;;;23.10;99.90;;;;;;5077837;28;20141;-79
2023/08/24 04:10:53;;;;;;;0.10;0.10;;;23.10;99.90;;;;;;5074420;28;20033;-79
2023/08/24 04:13:19;;;;;;;0.27;0.27;;;23.00;99.90;;;;;;5073697;28;20028;-80
2023/08/24 04:15:45;;;;;;;0.20;0.13;;;23.00;99.90;;;;;;5079412;28;20629;-79
2023/08/24 04:18:11;;;;;;;0.77;0.77;;;22.90;99.90;;;;;;5055635;28;20065;-79
2023/08/24 04:20:36;;;;;;;0.00;0.00;;;22.90;99.90;;;;;;5083730;28;20575;-78
2023/08/24 04:23:02;;;;;;;0.00;0.00;;;22.90;99.90;;;;;;5072469;28;20024;-78
2023/08/24 04:25:29;;;;;;;0.00;0.00;;;22.90;99.90;;;;;;5080043;28;20032;-81
2023/08/24 04:27:55;;;;;;;0.50;0.50;;;23.00;99.90;;;;;;5060091;28;20831;-79
2023/08/24 04:30:21;;;;;;;0.00;0.00;;;23.00;99.90;;;;;;5072217;28;20024;-85
2023/08/24 04:32:47;;;;;;;4.70;1.05;;;22.90;99.90;;;;;;5072193;28;20048;-81
2023/08/24 04:35:13;;;;;;;0.00;0.00;;;22.80;99.90;;;;;;5079354;28;20068;-82
2023/08/24 04:37:38;;;;;;;0.10;0.10;;;22.80;99.90;;;;;;5081293;28;20024;-79
2023/08/24 04:40:07;;;;;;;2.37;0.83;;;22.80;99.90;;;;;;5075767;28;20072;-82
2023/08/24 04:42:33;;;;;;;0.38;0.38;;;22.80;99.90;;;;;;5081180;28;20019;-79
2023/08/24 04:44:59;;;;;;;0.20;0.20;;;22.70;99.90;;;;;;5082285;28;20085;-79
2023/08/24 04:47:24;;;;;;;0.47;0.47;;;22.70;99.90;;;;;;5073256;28;20028;-80
2023/08/24 04:49:50;;;;;;;0.20;0.20;;;22.80;99.90;;;;;;5080615;28;20020;-82
2023/08/24 04:52:16;;;;;;;0.00;0.00;;;22.80;99.90;;;;;;5070312;28;21319;-85
2023/08/24 04:54:41;;;;;;;0.00;0.00;;;22.80;99.90;;;;;;5058879;28;20035;-80
2023/08/24 04:57:07;;;;;;;0.00;0.00;;;22.80;99.90;;;;;;5059620;28;20028;-83
2023/08/24 04:59:33;;;;;;;0.00;0.00;;;22.70;99.90;;;;;;5073056;28;20025;-82
2023/08/24 05:01:58;;;;;;;1.40;0.57;;;22.60;99.90;;;;;;5077813;28;20729;-77
2023/08/24 05:04:24;;;;;;;0.00;0.00;;;22.60;99.90;;;;;;5076875;28;20363;-80
2023/08/24 05:06:50;;;;;;;0.07;0.07;;;22.60;99.90;;;;;;5053315;28;20671;-78
2023/08/24 05:09:16;;;;;;;0.00;0.00;;;22.70;99.90;;;;;;5077485;28;20450;-79
2023/08/24 05:11:41;;;;;;;0.10;0.10;;;22.70;99.90;;;;;;5053603;28;20462;-77
2023/08/24 05:14:07;;;;;;;0.20;0.10;;;22.70;99.90;;;;;;5081756;28;20044;-81
2023/08/24 05:16:33;;;;;;;0.10;0.10;;;22.70;99.90;;;;;;5082367;28;20044;-82
2023/08/24 05:18:58;;;;;;;0.77;0.77;;;22.80;99.90;;;;;;5076986;28;20029;-76
2023/08/24 05:21:24;;;;;;;1.70;1.43;;;22.70;99.90;;;;;;5057209;28;20059;-81
2023/08/24 05:23:51;;;;;;;0.00;0.00;;;22.80;99.90;;;;;;5058898;28;20439;-81
2023/08/24 05:26:22;;;;;;;0.43;0.43;;;22.90;99.90;;;;;;5078043;28;20035;-79
2023/08/24 05:28:48;;;;;;;10.05;1.02;;;23.10;99.90;;;;;;5081370;28;20016;-78
2023/08/24 05:31:13;;;;;;;0.17;0.17;;;23.00;99.90;;;;;;5076641;28;20039;-77
2023/08/24 05:33:39;;;;;;;0.73;0.50;;;23.20;99.90;;;;;;5075265;28;20083;-78
2023/08/24 05:36:05;;;;;;;0.00;0.00;;;23.20;99.90;;;;;;5061649;28;20055;-77
2023/08/24 05:38:30;;;;;;;0.00;0.00;;;23.40;99.90;;;;;;5080099;28;20111;-78
2023/08/24 05:40:56;;;;;;;0.93;0.93;;;23.70;99.60;;;;;;5076967;28;20054;-77
2023/08/24 05:43:22;;;;;;;0.00;0.00;;;23.70;99.70;;;;;;5077552;28;20040;-77
2023/08/24 05:45:50;;;;;;;0.00;0.00;;;23.80;99.60;;;;;;5075471;28;20016;-81
2023/08/24 05:48:16;;;;;;;0.10;0.10;;;24.00;99.10;;;;;;5074630;28;20020;-78
2023/08/24 05:50:48;;;;;;;0.00;0.00;;;24.10;98.80;;;;;;5057002;28;20114;-78
2023/08/24 05:53:14;;;;;;;0.00;0.00;;;24.30;98.60;;;;;;5077951;28;20032;-79
2023/08/24 05:55:40;;;;;;;0.00;0.00;;;24.90;97.40;;;;;;5079102;28;20877;-77
2023/08/24 05:58:06;;;;;;;0.00;0.00;;;25.20;96.70;;;;;;5072214;28;20036;-80
2023/08/24 06:00:32;;;;;;;0.55;0.55;;;25.50;95.40;;;;;;5059674;28;20032;-77
2023/08/24 06:02:58;;;;;;;0.77;0.77;;;25.90;94.70;;;;;;5076731;28;20036;-80
2023/08/24 06:05:24;;;;;;;0.57;0.53;;;26.10;94.20;;;;;;5079421;28;20021;-77
2023/08/24 06:07:49;;;;;;;0.00;0.00;;;26.50;93.60;;;;;;5068719;28;20958;-80
2023/08/24 06:10:15;;;;;;;0.70;0.70;;;26.60;92.80;;;;;;5069503;28;20073;-79
2023/08/24 06:12:41;;;;;;;0.00;0.00;;;26.90;92.80;;;;;;5078422;28;20559;-78
2023/08/24 06:15:09;;;;;;;1.40;0.83;;;27.10;92.10;;;;;;5062834;28;20099;-78
2023/08/24 06:17:35;;;;;;;0.10;0.10;;;27.50;91.20;;;;;;5075642;28;20266;-79
2023/08/24 06:20:05;;;;;;;0.15;0.15;;;27.70;91.30;;;;;;5047764;28;20091;-78
2023/08/24 06:22:31;;;;;;;0.00;0.00;;;28.20;90.70;;;;;;5075993;28;20914;-78
2023/08/24 06:24:59;;;;;;;0.00;0.00;;;28.50;90.10;;;;;;5074036;28;20020;-78
2023/08/24 06:27:25;;;;;;;0.52;0.52;;;28.90;88.40;;;;;;5054754;28;20109;-79
2023/08/24 06:29:51;;;;;;;1.30;1.20;;;29.00;86.80;;;;;;5055787;28;20086;-79
2023/08/24 06:32:17;;;;;;;0.00;0.00;;;29.30;88.30;;;;;;5076045;28;20024;-78
2023/08/24 06:34:42;;;;;;;0.10;0.10;;;29.60;85.70;;;;;;5071915;28;20140;-76
2023/08/24 06:37:08;;;;;;;0.00;0.00;;;29.70;85.10;;;;;;5069026;28;20067;-79
2023/08/24 06:42:56;;;;;;;0.08;0.03;;;30.10;83.60;;;;;;5081508;28;20086;-77
2023/08/24 06:45:22;;;;;;;0.00;0.00;;;30.40;81.30;;;;;;5081846;28;20028;-78
2023/08/24 06:47:48;;;;;;;0.00;0.00;;;30.20;80.60;;;;;;5082297;28;20034;-78
2023/08/24 06:50:14;;;;;;;;;;;30.60;80.60;;;;;;5076736;28;20060;-77
2023/08/24 06:52:41;;;;;;;0.00;0.00;;;31.00;80.40;;;;;;5051355;28;20357;-79
2023/08/24 06:55:08;;;;;;;0.00;0.00;;;31.30;79.70;;;;;;5053563;28;20048;-79
2023/08/24 06:57:34;;;;;;;0.20;0.20;;;31.30;77.20;;;;;;5066456;28;20104;-79
2023/08/24 07:00:00;;;;;;;;;;;31.30;75.60;;;;;;5068185;28;20031;-78
2023/08/24 07:02:26;;;;;;;0.00;0.00;;;31.70;76.80;;;;;;5074161;28;19904;-78
2023/08/24 07:04:51;;;;;;;0.00;0.00;;;32.60;75.70;;;;;;5068100;28;20037;-78
2023/08/24 07:07:17;;;;;;;;;;;32.40;72.90;;;;;;5069725;28;20029;-80
2023/08/24 07:09:43;;;;;;;0.00;0.00;;;32.40;73.20;;;;;;5063240;28;19954;-77
2023/08/24 07:12:10;;;;;;;;;;;32.90;70.70;;;;;;5068028;28;20024;-79
2023/08/24 07:14:36;;;;;;;3.33;0.43;;;32.60;71.50;;;;;;5063513;28;20351;-78
2023/08/24 07:17:02;;;;;;;0.00;0.00;;;33.30;73.40;;;;;;5067460;28;20589;-78
2023/08/24 07:19:28;;;;;;;0.00;0.00;;;33.40;68.80;;;;;;5068585;28;20892;-76
2023/08/24 07:21:54;;;;;;;0.00;0.00;;;33.70;69.30;;;;;;5057652;28;20041;-79
2023/08/24 07:24:20;;;;;;;0.03;0.03;;;33.60;67.60;;;;;;5052269;28;20135;-77
2023/08/24 07:26:46;;;;;;;0.00;0.00;;;33.70;67.30;;;;;;5067071;28;20756;-78
2023/08/24 07:29:12;;;;;;;0.10;0.10;;;34.30;68.40;;;;;;5066326;28;20024;-81
2023/08/24 07:31:38;;;;;;;0.10;0.10;;;35.00;66.40;;;;;;5065723;28;20027;-77
2023/08/24 07:34:04;;;;;;;0.00;0.00;;;35.00;64.30;;;;;;5079507;28;20639;-78
2023/08/24 07:36:30;;;;;;;0.80;0.47;;;35.10;64.00;;;;;;5065942;28;20039;-78
2023/08/24 07:38:56;;;;;;;0.00;0.00;;;35.70;62.40;;;;;;5072384;28;20019;-78
2023/08/24 07:41:22;;;;;;;0.10;0.10;;;35.40;61.40;;;;;;5053437;28;20037;-79
2023/08/24 07:43:48;;;;;;;0.00;0.00;;;35.50;61.00;;;;;;5068948;28;20023;-78
2023/08/24 07:46:14;;;;;;;0.00;0.00;;;35.80;62.20;;;;;;5076468;28;20466;-82
2023/08/24 07:48:40;;;;;;;0.00;0.00;;;36.10;61.60;;;;;;5071902;28;20032;-78
2023/08/24 07:51:06;;;;;;;0.20;0.13;;;37.10;62.40;;;;;;5084240;28;20032;-79
2023/08/24 07:53:32;;;;;;;0.03;0.03;;;37.10;62.00;;;;;;5073513;28;20016;-78
2023/08/24 07:55:58;;;;;;;0.10;0.10;;;37.10;60.00;;;;;;5081261;28;20052;-80
2023/08/24 07:58:25;;;;;;;0.00;0.00;;;36.80;59.40;;;;;;5068166;28;20020;-79
2023/08/24 08:00:54;;;;;;;0.00;0.00;;;37.30;58.30;;;;;;5076751;28;20028;-78
2023/08/24 08:03:20;;;;;;;0.00;0.00;;;37.40;57.00;;;;;;5076334;28;20030;-80
2023/08/24 08:05:46;;;;;;;0.28;0.28;;;36.80;56.70;;;;;;5071712;28;20032;-78
2023/08/24 08:08:16;;;;;;;0.00;0.00;;;37.20;56.60;;;;;;5072098;28;20028;-78
2023/08/24 08:10:42;;;;;;;0.00;0.00;;;37.50;58.00;;;;;;5068517;28;20012;-78
2023/08/24 08:13:11;;;;;;;0.00;0.00;;;37.90;55.70;;;;;;5068101;28;20510;-78
2023/08/24 08:15:38;;;;;;;0.00;0.00;;;38.90;55.50;;;;;;5068967;28;20045;-79
2023/08/24 08:18:04;;;;;;;0.00;0.00;;;39.20;55.40;;;;;;5072036;28;20017;-78
2023/08/24 08:20:31;;;;;;;0.03;0.03;;;39.30;55.10;;;;;;5071413;28;20031;-80
2023/08/24 08:22:57;;;;;;;0.10;0.10;;;39.40;53.60;;;;;;5071000;28;20032;-80
2023/08/24 08:25:22;;;;;;;0.00;0.00;;;40.20;52.40;;;;;;5049354;28;20050;-77
2023/08/24 08:27:49;;;;;;;0.00;0.00;;;40.20;53.10;;;;;;5079888;28;20505;-79
2023/08/24 08:30:15;;;;;;;0.00;0.00;;;41.20;54.60;;;;;;5077085;28;20021;-77
2023/08/24 08:32:41;;;;;;;0.05;0.00;;;40.80;48.90;;;;;;5065687;28;20523;-79
2023/08/24 08:35:08;;;;;;;0.00;0.00;;;40.30;50.20;;;;;;5080012;28;20021;-77
2023/08/24 08:37:34;;;;;;;0.00;0.00;;;40.70;46.80;;;;;;5073303;28;20073;-79
2023/08/24 08:39:59;;;;;;;0.00;0.00;;;40.90;45.00;;;;;;5077303;28;20417;-80
2023/08/24 08:42:25;;;;;;;0.00;0.00;;;41.10;46.60;;;;;;5047922;28;20107;-80
2023/08/24 08:44:54;;;;;;;0.08;0.08;;;41.50;46.50;;;;;;5071595;28;20035;-80
2023/08/24 08:47:21;;;;;;;0.00;0.00;;;41.50;42.10;;;;;;5078490;28;20038;-79
2023/08/24 08:49:48;;;;;;;0.00;0.00;;;41.40;43.10;;;;;;5070481;28;20028;-79
2023/08/24 08:52:14;;;;;;;0.40;0.40;;;40.00;43.30;;;;;;5058382;28;20077;-80
2023/08/24 08:54:40;;;;;;;0.00;0.00;;;40.30;43.10;;;;;;5078844;28;20099;-78
2023/08/24 08:57:06;;;;;;;0.00;0.00;;;41.00;43.60;;;;;;5077134;28;20697;-79
2023/08/24 08:59:33;;;;;;;0.00;0.00;;;41.20;42.30;;;;;;5077025;28;20113;-80
2023/08/24 09:02:03;;;;;;;0.00;0.00;;;41.50;41.40;;;;;;5076481;28;20050;-81
2023/08/24 09:04:33;;;;;;;0.00;0.00;;;42.00;41.40;;;;;;5076444;28;20040;-79
2023/08/24 09:07:04;;;;;;;0.00;0.00;;;42.80;40.70;;;;;;5075994;28;20043;-81
2023/08/24 09:09:30;;;;;;;0.10;0.10;;;42.70;40.10;;;;;;5067992;28;20025;-78
2023/08/24 09:11:56;;;;;;;10.00;0.52;;;42.10;39.90;;;;;;5080371;28;20023;-78
2023/08/24 09:14:22;;;;;;;0.00;0.00;;;42.20;39.80;;;;;;5073609;28;20024;-79
2023/08/24 09:16:49;;;;;;;0.00;0.00;;;42.50;39.60;;;;;;5051716;28;20402;-79
2023/08/24 09:19:15;;;;;;;0.00;0.00;;;42.30;39.10;;;;;;5058767;28;20131;-78
2023/08/24 09:21:41;;;;;;;0.00;0.00;;;42.70;38.90;;;;;;5067163;28;20031;-81
2023/08/24 09:24:08;;;;;;;0.00;0.00;;;42.60;38.60;;;;;;5048885;28;20032;-79
2023/08/24 09:26:36;;;;;;;0.00;0.00;;;42.20;38.40;;;;;;5070346;28;20043;-77
2023/08/24 09:29:14;;;;;;;0.00;0.00;;;43.40;38.80;;;;;;5073265;28;20051;-79
2023/08/24 09:31:43;;;;;;;0.00;0.00;;;43.10;38.30;;;;;;5054467;28;20106;-80
2023/08/24 09:34:09;;;;;;;0.00;0.00;;;42.50;37.70;;;;;;5046867;28;20515;-77
2023/08/24 09:36:36;;;;;;;0.10;0.10;;;43.60;38.30;;;;;;5072681;28;20017;-79
2023/08/24 09:39:07;;;;;;;0.00;0.00;;;44.50;37.80;;;;;;5069295;28;20042;-78
2023/08/24 09:41:48;;;;;;;0.00;0.00;;;44.40;36.70;;;;;;5067098;28;20024;-77
2023/08/24 09:44:14;;;;;;;0.00;0.00;;;44.10;36.70;;;;;;5074034;28;20016;-79
2023/08/24 09:46:40;;;;;;;0.03;0.03;;;42.30;37.30;;;;;;5069832;28;20410;-79
2023/08/24 09:49:07;;;;;;;0.20;0.20;;;42.60;37.30;;;;;;5069378;28;20025;-77
2023/08/24 09:51:35;;;;;;;0.00;0.00;;;42.00;36.90;;;;;;5060143;28;20020;-79
2023/08/24 09:54:06;;;;;;;0.00;0.00;;;42.40;36.80;;;;;;5070419;28;20040;-80
2023/08/24 09:56:36;;;;;;;0.00;0.00;;;42.50;36.60;;;;;;5051287;28;20036;-77
2023/08/24 09:59:14;;;;;;;0.10;0.10;;;42.40;37.40;;;;;;5081287;28;20020;-79
2023/08/24 10:01:44;;;;;;;0.10;0.10;;;42.20;37.10;;;;;;5074603;28;20024;-78
2023/08/24 10:04:12;;;;;;;0.30;0.30;;;43.40;37.30;;;;;;5074038;28;20078;-78
2023/08/24 10:06:42;;;;;;;0.05;0.05;;;43.70;37.60;;;;;;5053725;28;20028;-77
2023/08/24 10:09:11;;;;;;;0.00;0.00;;;43.30;37.40;;;;;;5077279;28;20056;-77
2023/08/24 10:11:42;;;;;;;0.00;0.00;;;43.60;35.20;;;;;;5051766;28;20024;-79
2023/08/24 10:14:17;;;;;;;1.55;0.68;;;43.20;35.30;;;;;;5070920;28;20086;-78
2023/08/24 10:16:46;;;;;;;0.00;0.00;;;43.30;36.80;;;;;;5065395;28;20051;-77
2023/08/24 10:19:13;;;;;;;0.00;0.00;;;43.30;36.70;;;;;;5048245;28;20489;-77
2023/08/24 10:21:39;;;;;;;1.08;0.98;;;42.90;36.20;;;;;;5064918;28;20016;-77
2023/08/24 10:24:06;;;;;;;0.20;0.20;;;41.20;37.80;;;;;;5072021;28;20023;-80
2023/08/24 10:26:33;;;;;;;0.10;0.10;;;40.00;37.10;;;;;;5071743;28;20024;-77
2023/08/24 10:29:00;;;;;;;2.85;1.65;;;38.40;38.90;;;;;;5066190;28;20118;-78
2023/08/24 10:31:27;;;;;;;0.00;0.00;;;38.80;38.40;;;;;;5072539;28;20020;-78
2023/08/24 10:33:54;;;;;;;0.00;0.00;;;38.80;38.90;;;;;;5074393;28;20024;-77
2023/08/24 10:36:22;;;;;;;0.00;0.00;;;38.30;41.50;;;;;;5069700;28;20209;-77
2023/08/24 10:38:47;;;;;;;0.00;0.00;;;38.40;41.40;;;;;;5072962;28;20023;-80
2023/08/24 10:41:13;;;;;;;0.00;0.00;;;38.40;40.70;;;;;;5068082;28;20021;-80
2023/08/24 10:43:40;;;;;;;0.08;0.08;;;38.50;41.90;;;;;;5074801;28;20498;-78
2023/08/24 10:46:13;;;;;;;0.08;0.08;;;38.30;42.10;;;;;;5064620;28;20087;-79
2023/08/24 10:48:42;;;;;;;0.00;0.00;;;38.10;42.00;;;;;;5063555;28;20123;-78
2023/08/24 10:51:14;;;;;;;0.65;0.45;;;38.00;40.50;;;;;;5072770;28;20024;-79
2023/08/24 10:53:40;;;;;;;0.00;0.00;;;37.70;41.50;;;;;;5071919;28;20034;-78
2023/08/24 10:56:13;;;;;;;0.00;0.00;;;37.70;41.00;;;;;;5069561;28;20499;-78
2023/08/24 10:58:39;;;;;;;0.00;0.00;;;37.90;42.20;;;;;;5062755;28;20020;-78
2023/08/24 11:01:04;;;;;;;0.00;0.00;;;37.60;40.30;;;;;;5071798;28;20025;-79
2023/08/24 11:03:34;;;;;;;0.00;0.00;;;37.60;40.10;;;;;;5074370;28;20080;-78
2023/08/24 11:06:00;;;;;;;0.00;0.00;;;37.30;40.00;;;;;;5069358;28;20506;-81
2023/08/24 11:08:45;;;;;;;0.00;0.00;;;37.40;40.90;;;;;;5064775;28;20467;-79
2023/08/24 11:11:21;;;;;;;0.00;0.00;;;37.30;40.90;;;;;;5080681;28;20089;-78
2023/08/24 11:14:29;;;;;;;0.00;0.00;;;37.50;41.50;;;;;;5073056;28;20020;-80
2023/08/24 11:17:02;;;;;;;0.00;0.00;;;37.50;42.90;;;;;;5067976;28;20548;-81
2023/08/24 11:19:28;;;;;;;0.00;0.00;;;37.20;40.80;;;;;;5052322;28;20486;-78
2023/08/24 11:21:53;;;;;;;0.10;0.10;;;37.20;42.20;;;;;;5066343;28;20035;-77
2023/08/24 11:24:19;;;;;;;0.30;0.30;;;37.10;41.50;;;;;;5064059;28;20027;-77
2023/08/24 11:26:47;;;;;;;0.00;0.00;;;37.10;43.70;;;;;;5068813;28;20033;-77
2023/08/24 11:29:13;;;;;;;0.00;0.00;;;37.30;41.10;;;;;;5045840;28;20101;-78
2023/08/24 11:31:39;;;;;;;0.10;0.10;;;37.30;42.50;;;;;;5062630;28;20111;-78
2023/08/24 11:34:07;;;;;;;0.00;0.00;;;37.10;41.20;;;;;;5063066;28;20017;-77
2023/08/24 11:36:42;;;;;;;0.00;0.00;;;37.00;41.70;;;;;;5050563;28;20766;-78
2023/08/24 11:39:17;;;;;;;0.00;0.00;;;36.80;41.50;;;;;;5076334;28;20027;-79
2023/08/24 11:41:44;;;;;;;;;;;36.90;43.50;;;;;;5070076;28;20024;-78
2023/08/24 11:44:10;;;;;;;0.00;0.00;;;36.80;42.60;;;;;;5072004;28;20003;-77
2023/08/24 11:46:37;;;;;;;0.00;0.00;;;36.80;41.00;;;;;;5077260;28;20059;-79
2023/08/24 11:49:06;;;;;;;0.00;0.00;;;36.90;42.20;;;;;;5050980;28;20086;-77
2023/08/24 11:51:34;;;;;;;0.00;0.00;;;36.80;41.30;;;;;;5054071;28;20016;-77
2023/08/24 11:53:59;;;;;;;0.00;0.00;;;36.80;43.00;;;;;;5073806;28;20031;-79
2023/08/24 11:56:25;;;;;;;0.00;0.00;;;36.70;41.70;;;;;;5068477;28;20074;-77
2023/08/24 11:58:51;;;;;;;0.00;0.00;;;36.70;41.10;;;;;;5079091;28;20028;-80
2023/08/24 12:01:17;;;;;;;0.10;0.10;;;36.70;41.40;;;;;;5055486;28;20024;-78
2023/08/24 12:03:43;;;;;;;0.00;0.00;;;36.80;42.10;;;;;;5079539;28;20821;-77
2023/08/24 12:06:14;;;;;;;0.00;0.00;;;36.90;42.20;;;;;;5078200;28;20047;-78
2023/08/24 12:08:46;;;;;;;2.05;1.60;;;36.70;41.50;;;;;;5069390;28;20097;-79
2023/08/24 12:11:17;;;;;;;0.00;0.00;;;36.90;41.40;;;;;;5058913;28;20434;-77
2023/08/24 12:13:48;;;;;;;0.00;0.00;;;36.80;42.90;;;;;;5071923;28;20029;-78
2023/08/24 12:16:16;;;;;;;0.00;0.00;;;36.70;42.60;;;;;;5073019;28;20059;-77
2023/08/24 12:18:55;;;;;;;0.05;0.00;;;36.60;41.30;;;;;;5072034;28;20081;-78
2023/08/24 12:21:22;;;;;;;0.00;0.00;;;36.80;40.70;;;;;;5048210;28;20029;-79
2023/08/24 12:24:05;;;;;;;0.00;0.00;;;36.90;43.50;;;;;;5074626;28;20107;-77
2023/08/24 12:26:32;;;;;;;0.00;0.00;;;36.80;41.70;;;;;;5078449;28;20024;-81
2023/08/24 12:29:05;;;;;;;0.00;0.00;;;36.60;40.80;;;;;;5071138;28;20454;-77
2023/08/24 12:31:31;;;;;;;0.10;0.10;;;36.70;40.30;;;;;;5076126;28;20028;-81
2023/08/24 12:34:10;;;;;;;0.00;0.00;;;36.60;41.60;;;;;;5050584;28;20044;-80
2023/08/24 12:36:37;;;;;;;0.00;0.00;;;36.80;44.00;;;;;;5069745;28;20024;-79
2023/08/24 12:39:04;;;;;;;0.00;0.00;;;36.70;42.10;;;;;;5074734;28;20024;-83
2023/08/24 12:41:30;;;;;;;0.00;0.00;;;36.80;45.60;;;;;;5067865;28;20024;-82
2023/08/24 12:43:56;;;;;;;0.00;0.00;;;36.90;46.00;;;;;;5080191;28;20028;-82
2023/08/24 12:46:22;;;;;;;0.00;0.00;;;36.80;45.80;;;;;;5077589;28;20382;-83
2023/08/24 12:48:47;;;;;;;0.00;0.00;;;36.60;45.70;;;;;;5072231;28;20026;-79
2023/08/24 12:51:13;;;;;;;0.00;0.00;;;36.90;48.80;;;;;;5080104;28;20033;-78